sensor_id;sensor_type;location;lat;lon;timestamp;noise_LAeq;noise_LA_min;noise_LA_max;noise_LA01;noise_LA95
64077;Laerm;51039;49.696;10.808;2023-04-25T00:00:14;40.81;39.29;41.99;;
64077;Laerm;51039;49.696;10.808;2023-04-25T00:02:39;40.82;39.83;41.96;;
64077;Laerm;51039;49.696;10.808;2023-04-25T00:05:05;40.81;39.59;41.96;;
64077;Laerm;51039;49.696;10.808;2023-04-25T00:07:30;40.82;39.57;42.19;;
64077;Laerm;51039;49.696;10.808;2023-04-25T00:09:57;40.82;39.47;41.96;;
64077;Laerm;51039;49.696;10.808;2023-04-25T00:12:22;40.83;39.65;41.95;;
64077;Laerm;51039;49.696;10.808;2023-04-25T00:14:48;40.85;39.77;42.06;;
64077;Laerm;51039;49.696;10.808;2023-04-25T00:17:15;40.85;39.69;42.08;;
64077;Laerm;51039;49.696;10.808;2023-04-25T00:19:41;40.88;39.60;42.24;;
64077;Laerm;51039;49.696;10.808;2023-04-25T00:22:07;40.90;39.70;42.01;;
64077;Laerm;51039;49.696;10.808;2023-04-25T00:24:32;40.91;39.68;42.10;;
64077;Laerm;51039;49.696;10.808;2023-04-25T00:26:58;40.92;39.62;41.97;;
64077;Laerm;51039;49.696;10.808;2023-04-25T00:29:23;40.95;39.75;42.17;;
64077;Laerm;51039;49.696;10.808;2023-04-25T00:31:48;40.96;39.67;42.22;;
64077;Laerm;51039;49.696;10.808;2023-04-25T00:34:13;40.95;39.58;42.19;;
64077;Laerm;51039;49.696;10.808;2023-04-25T00:36:39;40.96;39.79;42.11;;
64077;Laerm;51039;49.696;10.808;2023-04-25T00:39:04;40.95;39.74;42.06;;
64077;Laerm;51039;49.696;10.808;2023-04-25T00:41:29;40.96;39.62;42.13;;
64077;Laerm;51039;49.696;10.808;2023-04-25T00:43:55;40.95;39.72;42.28;;
64077;Laerm;51039;49.696;10.808;2023-04-25T00:46:21;40.96;39.87;42.00;;
64077;Laerm;51039;49.696;10.808;2023-04-25T00:48:47;40.96;39.89;42.06;;
64077;Laerm;51039;49.696;10.808;2023-04-25T00:51:21;40.95;39.77;42.12;;
64077;Laerm;51039;49.696;10.808;2023-04-25T00:53:49;40.96;39.56;42.09;;
64077;Laerm;51039;49.696;10.808;2023-04-25T00:56:15;40.98;39.62;42.37;;
64077;Laerm;51039;49.696;10.808;2023-04-25T00:58:41;41.02;39.80;42.22;;
64077;Laerm;51039;49.696;10.808;2023-04-25T01:01:07;41.04;39.56;42.41;;
64077;Laerm;51039;49.696;10.808;2023-04-25T01:03:34;41.06;39.82;42.19;;
64077;Laerm;51039;49.696;10.808;2023-04-25T01:06:07;41.08;39.82;42.25;;
64077;Laerm;51039;49.696;10.808;2023-04-25T01:08:33;41.08;39.89;42.28;;
64077;Laerm;51039;49.696;10.808;2023-04-25T01:10:59;41.10;39.82;42.20;;
64077;Laerm;51039;49.696;10.808;2023-04-25T01:13:24;41.11;39.83;42.17;;
64077;Laerm;51039;49.696;10.808;2023-04-25T01:15:49;41.12;39.87;42.48;;
64077;Laerm;51039;49.696;10.808;2023-04-25T01:18:15;41.11;39.95;42.30;;
64077;Laerm;51039;49.696;10.808;2023-04-25T01:20:41;41.10;39.82;42.40;;
64077;Laerm;51039;49.696;10.808;2023-04-25T01:23:07;41.08;40.01;42.31;;
64077;Laerm;51039;49.696;10.808;2023-04-25T01:25:33;41.08;39.81;42.32;;
64077;Laerm;51039;49.696;10.808;2023-04-25T01:27:59;41.06;39.95;42.24;;
64077;Laerm;51039;49.696;10.808;2023-04-25T01:30:28;41.05;39.81;42.16;;
64077;Laerm;51039;49.696;10.808;2023-04-25T01:32:55;41.05;39.86;42.10;;
64077;Laerm;51039;49.696;10.808;2023-04-25T01:35:21;41.06;39.67;42.31;;
64077;Laerm;51039;49.696;10.808;2023-04-25T01:37:49;41.06;39.90;42.37;;
64077;Laerm;51039;49.696;10.808;2023-04-25T01:40:14;41.06;39.78;42.18;;
64077;Laerm;51039;49.696;10.808;2023-04-25T01:42:42;41.07;39.81;42.31;;
64077;Laerm;51039;49.696;10.808;2023-04-25T01:45:08;41.03;39.53;42.32;;
64077;Laerm;51039;49.696;10.808;2023-04-25T01:47:34;41.03;39.73;42.14;;
64077;Laerm;51039;49.696;10.808;2023-04-25T01:50:04;41.02;39.65;42.09;;
64077;Laerm;51039;49.696;10.808;2023-04-25T01:52:29;41.02;39.47;42.41;;
64077;Laerm;51039;49.696;10.808;2023-04-25T01:54:56;41.00;39.84;42.18;;
64077;Laerm;51039;49.696;10.808;2023-04-25T01:57:22;41.00;39.66;42.24;;
64077;Laerm;51039;49.696;10.808;2023-04-25T01:59:47;41.00;39.86;42.30;;
64077;Laerm;51039;49.696;10.808;2023-04-25T02:02:13;41.01;39.90;42.21;;
64077;Laerm;51039;49.696;10.808;2023-04-25T02:04:38;41.01;39.71;42.16;;
64077;Laerm;51039;49.696;10.808;2023-04-25T02:07:03;41.03;39.80;42.21;;
64077;Laerm;51039;49.696;10.808;2023-04-25T02:09:29;41.02;39.67;42.16;;
64077;Laerm;51039;49.696;10.808;2023-04-25T02:11:54;41.03;39.80;42.13;;
64077;Laerm;51039;49.696;10.808;2023-04-25T02:14:19;41.02;39.59;42.31;;
64077;Laerm;51039;49.696;10.808;2023-04-25T02:16:45;41.03;39.88;42.33;;
64077;Laerm;51039;49.696;10.808;2023-04-25T02:19:11;41.03;39.94;42.19;;
64077;Laerm;51039;49.696;10.808;2023-04-25T02:21:37;41.02;39.66;42.13;;
64077;Laerm;51039;49.696;10.808;2023-04-25T02:24:03;41.03;39.82;42.21;;
64077;Laerm;51039;49.696;10.808;2023-04-25T02:26:29;41.03;39.78;42.10;;
64077;Laerm;51039;49.696;10.808;2023-04-25T02:28:55;41.02;39.86;42.10;;
64077;Laerm;51039;49.696;10.808;2023-04-25T02:31:21;41.03;39.77;42.44;;
64077;Laerm;51039;49.696;10.808;2023-04-25T02:33:47;41.01;39.80;42.24;;
64077;Laerm;51039;49.696;10.808;2023-04-25T02:36:12;41.00;39.84;42.38;;
64077;Laerm;51039;49.696;10.808;2023-04-25T02:38:38;41.01;39.65;42.10;;
64077;Laerm;51039;49.696;10.808;2023-04-25T02:41:03;41.02;39.85;42.34;;
64077;Laerm;51039;49.696;10.808;2023-04-25T02:43:29;41.03;39.78;42.05;;
64077;Laerm;51039;49.696;10.808;2023-04-25T02:45:54;41.02;39.67;42.33;;
64077;Laerm;51039;49.696;10.808;2023-04-25T02:48:20;41.03;39.84;42.23;;
64077;Laerm;51039;49.696;10.808;2023-04-25T02:50:45;41.02;39.83;42.22;;
64077;Laerm;51039;49.696;10.808;2023-04-25T02:53:10;41.02;39.65;42.22;;
64077;Laerm;51039;49.696;10.808;2023-04-25T02:55:36;41.01;39.74;42.05;;
64077;Laerm;51039;49.696;10.808;2023-04-25T02:58:01;41.03;39.73;42.39;;
64077;Laerm;51039;49.696;10.808;2023-04-25T03:00:27;41.03;39.78;42.19;;
64077;Laerm;51039;49.696;10.808;2023-04-25T03:02:53;41.04;39.44;42.16;;
64077;Laerm;51039;49.696;10.808;2023-04-25T03:05:18;41.04;39.92;42.16;;
64077;Laerm;51039;49.696;10.808;2023-04-25T03:07:44;41.04;39.90;42.47;;
64077;Laerm;51039;49.696;10.808;2023-04-25T03:10:11;41.03;39.71;42.11;;
64077;Laerm;51039;49.696;10.808;2023-04-25T03:12:36;41.02;39.66;42.37;;
64077;Laerm;51039;49.696;10.808;2023-04-25T03:15:03;41.02;39.79;42.04;;
64077;Laerm;51039;49.696;10.808;2023-04-25T03:17:29;41.01;39.76;42.30;;
64077;Laerm;51039;49.696;10.808;2023-04-25T03:19:54;41.03;39.74;42.20;;
64077;Laerm;51039;49.696;10.808;2023-04-25T03:22:20;41.03;39.41;42.28;;
64077;Laerm;51039;49.696;10.808;2023-04-25T03:24:45;40.99;39.74;42.39;;
64077;Laerm;51039;49.696;10.808;2023-04-25T03:27:11;40.98;39.48;42.25;;
64077;Laerm;51039;49.696;10.808;2023-04-25T03:29:36;40.72;39.02;42.00;;
64077;Laerm;51039;49.696;10.808;2023-04-25T03:32:01;40.03;38.87;41.14;;
64077;Laerm;51039;49.696;10.808;2023-04-25T03:34:26;39.85;38.63;41.04;;
64077;Laerm;51039;49.696;10.808;2023-04-25T03:36:52;42.60;38.53;75.70;;
64077;Laerm;51039;49.696;10.808;2023-04-25T03:39:17;39.80;38.63;40.87;;
64077;Laerm;51039;49.696;10.808;2023-04-25T03:41:42;39.88;38.66;40.98;;
64077;Laerm;51039;49.696;10.808;2023-04-25T03:44:08;39.95;38.69;41.00;;
64077;Laerm;51039;49.696;10.808;2023-04-25T03:46:33;39.95;38.59;41.22;;
64077;Laerm;51039;49.696;10.808;2023-04-25T03:48:58;39.96;38.82;41.11;;
64077;Laerm;51039;49.696;10.808;2023-04-25T03:51:24;39.96;38.80;41.23;;
64077;Laerm;51039;49.696;10.808;2023-04-25T03:53:51;39.98;38.76;41.05;;
64077;Laerm;51039;49.696;10.808;2023-04-25T03:56:16;40.00;38.89;41.19;;
64077;Laerm;51039;49.696;10.808;2023-04-25T03:58:41;39.99;38.67;41.09;;
64077;Laerm;51039;49.696;10.808;2023-04-25T04:01:07;39.91;38.80;41.03;;
64077;Laerm;51039;49.696;10.808;2023-04-25T04:03:36;39.86;38.73;41.11;;
64077;Laerm;51039;49.696;10.808;2023-04-25T04:06:05;39.79;38.64;40.85;;
64077;Laerm;51039;49.696;10.808;2023-04-25T04:08:31;39.72;38.40;40.82;;
64077;Laerm;51039;49.696;10.808;2023-04-25T04:10:58;39.67;38.46;40.81;;
64077;Laerm;51039;49.696;10.808;2023-04-25T04:13:25;39.64;38.43;40.66;;
64077;Laerm;51039;49.696;10.808;2023-04-25T04:15:51;39.61;38.27;40.65;;
64077;Laerm;51039;49.696;10.808;2023-04-25T04:18:16;39.60;38.21;40.75;;
64077;Laerm;51039;49.696;10.808;2023-04-25T04:20:41;39.59;38.28;40.70;;
64077;Laerm;51039;49.696;10.808;2023-04-25T04:23:07;39.58;38.38;40.71;;
64077;Laerm;51039;49.696;10.808;2023-04-25T04:25:32;39.58;38.20;40.72;;
64077;Laerm;51039;49.696;10.808;2023-04-25T04:27:57;39.60;38.57;40.67;;
64077;Laerm;51039;49.696;10.808;2023-04-25T04:30:24;39.63;38.35;40.81;;
64077;Laerm;51039;49.696;10.808;2023-04-25T04:32:51;39.67;38.51;40.77;;
64077;Laerm;51039;49.696;10.808;2023-04-25T04:35:17;39.72;38.52;40.98;;
64077;Laerm;51039;49.696;10.808;2023-04-25T04:37:42;39.75;38.71;40.93;;
64077;Laerm;51039;49.696;10.808;2023-04-25T04:40:09;39.78;38.59;40.86;;
64077;Laerm;51039;49.696;10.808;2023-04-25T04:42:34;39.79;38.58;40.87;;
64077;Laerm;51039;49.696;10.808;2023-04-25T04:45:01;39.81;38.64;40.96;;
64077;Laerm;51039;49.696;10.808;2023-04-25T04:47:27;39.86;38.65;41.04;;
64077;Laerm;51039;49.696;10.808;2023-04-25T04:49:55;39.93;38.72;41.07;;
64077;Laerm;51039;49.696;10.808;2023-04-25T04:52:21;39.97;38.84;41.22;;
64077;Laerm;51039;49.696;10.808;2023-04-25T04:54:46;40.03;38.80;41.21;;
64077;Laerm;51039;49.696;10.808;2023-04-25T04:57:11;40.12;38.83;41.41;;
64077;Laerm;51039;49.696;10.808;2023-04-25T04:59:36;40.14;38.79;41.31;;
64077;Laerm;51039;49.696;10.808;2023-04-25T05:02:02;40.16;38.95;41.28;;
64077;Laerm;51039;49.696;10.808;2023-04-25T05:04:27;40.17;38.90;41.42;;
64077;Laerm;51039;49.696;10.808;2023-04-25T05:06:52;40.17;38.81;41.21;;
64077;Laerm;51039;49.696;10.808;2023-04-25T05:09:18;40.17;39.00;41.56;;
64077;Laerm;51039;49.696;10.808;2023-04-25T05:11:44;40.18;39.04;41.45;;
64077;Laerm;51039;49.696;10.808;2023-04-25T05:14:09;40.19;38.86;41.42;;
64077;Laerm;51039;49.696;10.808;2023-04-25T05:16:34;40.19;38.99;41.42;;
64077;Laerm;51039;49.696;10.808;2023-04-25T05:19:00;40.18;38.87;41.35;;
64077;Laerm;51039;49.696;10.808;2023-04-25T05:21:25;40.21;38.98;41.28;;
64077;Laerm;51039;49.696;10.808;2023-04-25T05:23:52;40.21;38.95;41.27;;
64077;Laerm;51039;49.696;10.808;2023-04-25T05:26:17;40.21;39.13;41.47;;
64077;Laerm;51039;49.696;10.808;2023-04-25T05:28:42;40.24;39.00;41.36;;
64077;Laerm;51039;49.696;10.808;2023-04-25T05:31:11;40.27;39.18;41.43;;
64077;Laerm;51039;49.696;10.808;2023-04-25T05:33:37;40.25;39.06;41.33;;
64077;Laerm;51039;49.696;10.808;2023-04-25T05:36:02;40.23;39.07;41.34;;
64077;Laerm;51039;49.696;10.808;2023-04-25T05:38:28;40.22;39.04;41.49;;
64077;Laerm;51039;49.696;10.808;2023-04-25T05:40:53;40.22;38.94;41.35;;
64077;Laerm;51039;49.696;10.808;2023-04-25T05:43:18;40.22;39.05;41.42;;
64077;Laerm;51039;49.696;10.808;2023-04-25T05:45:44;40.22;39.05;41.46;;
64077;Laerm;51039;49.696;10.808;2023-04-25T05:48:09;40.23;38.92;41.40;;
64077;Laerm;51039;49.696;10.808;2023-04-25T05:50:34;40.24;38.72;41.35;;
64077;Laerm;51039;49.696;10.808;2023-04-25T05:53:00;40.26;39.09;41.31;;
64077;Laerm;51039;49.696;10.808;2023-04-25T05:55:25;40.27;39.03;41.41;;
64077;Laerm;51039;49.696;10.808;2023-04-25T05:57:50;40.26;39.10;41.34;;
64077;Laerm;51039;49.696;10.808;2023-04-25T06:00:16;40.26;39.01;41.44;;
64077;Laerm;51039;49.696;10.808;2023-04-25T06:02:41;40.28;39.14;41.53;;
64077;Laerm;51039;49.696;10.808;2023-04-25T06:05:07;40.31;38.96;41.54;;
64077;Laerm;51039;49.696;10.808;2023-04-25T06:07:33;40.34;39.09;41.63;;
64077;Laerm;51039;49.696;10.808;2023-04-25T06:09:58;40.37;39.18;41.62;;
64077;Laerm;51039;49.696;10.808;2023-04-25T06:12:25;40.40;39.17;41.48;;
64077;Laerm;51039;49.696;10.808;2023-04-25T06:14:50;40.42;39.17;41.64;;
64077;Laerm;51039;49.696;10.808;2023-04-25T06:17:15;40.43;38.69;41.49;;
64077;Laerm;51039;49.696;10.808;2023-04-25T06:19:41;40.44;39.08;41.51;;
64077;Laerm;51039;49.696;10.808;2023-04-25T06:22:07;40.45;39.24;41.55;;
64077;Laerm;51039;49.696;10.808;2023-04-25T06:24:33;40.48;39.01;41.55;;
64077;Laerm;51039;49.696;10.808;2023-04-25T06:26:58;40.49;39.37;41.57;;
64077;Laerm;51039;49.696;10.808;2023-04-25T06:29:24;40.48;39.32;41.99;;
64077;Laerm;51039;49.696;10.808;2023-04-25T06:31:49;40.42;39.20;41.74;;
64077;Laerm;51039;49.696;10.808;2023-04-25T06:34:15;40.42;39.22;41.69;;
64077;Laerm;51039;49.696;10.808;2023-04-25T06:36:40;40.48;39.31;41.67;;
64077;Laerm;51039;49.696;10.808;2023-04-25T06:39:06;40.54;39.20;41.65;;
64077;Laerm;51039;49.696;10.808;2023-04-25T06:41:31;40.59;39.47;42.42;;
64077;Laerm;51039;49.696;10.808;2023-04-25T06:43:57;40.55;39.12;41.75;;
64077;Laerm;51039;49.696;10.808;2023-04-25T06:46:22;40.55;39.10;41.64;;
64077;Laerm;51039;49.696;10.808;2023-04-25T06:48:47;40.55;39.41;41.58;;
64077;Laerm;51039;49.696;10.808;2023-04-25T06:51:13;40.53;39.27;41.64;;
64077;Laerm;51039;49.696;10.808;2023-04-25T06:53:39;40.49;39.10;41.66;;
64077;Laerm;51039;49.696;10.808;2023-04-25T06:56:05;40.49;39.42;41.87;;
64077;Laerm;51039;49.696;10.808;2023-04-25T06:58:30;40.55;39.18;41.71;;
64077;Laerm;51039;49.696;10.808;2023-04-25T07:00:55;40.62;39.30;41.83;;
64077;Laerm;51039;49.696;10.808;2023-04-25T07:03:20;40.73;39.52;42.14;;
64077;Laerm;51039;49.696;10.808;2023-04-25T07:05:46;41.23;40.11;42.40;;
64077;Laerm;51039;49.696;10.808;2023-04-25T07:08:11;41.28;40.14;42.42;;
64077;Laerm;51039;49.696;10.808;2023-04-25T07:10:37;41.33;40.06;42.83;;
64077;Laerm;51039;49.696;10.808;2023-04-25T07:13:02;41.39;40.20;42.56;;
64077;Laerm;51039;49.696;10.808;2023-04-25T07:15:28;41.47;40.28;42.57;;
64077;Laerm;51039;49.696;10.808;2023-04-25T07:17:53;41.55;40.33;43.58;;
64077;Laerm;51039;49.696;10.808;2023-04-25T07:20:18;41.66;40.44;42.88;;
64077;Laerm;51039;49.696;10.808;2023-04-25T07:22:44;41.86;40.68;43.03;;
64077;Laerm;51039;49.696;10.808;2023-04-25T07:25:09;41.96;40.68;43.12;;
64077;Laerm;51039;49.696;10.808;2023-04-25T07:27:35;41.98;40.70;43.44;;
64077;Laerm;51039;49.696;10.808;2023-04-25T07:30:01;42.03;40.68;43.33;;
64077;Laerm;51039;49.696;10.808;2023-04-25T07:32:26;42.03;40.74;43.06;;
64077;Laerm;51039;49.696;10.808;2023-04-25T07:34:52;41.99;40.71;43.15;;
64077;Laerm;51039;49.696;10.808;2023-04-25T07:37:17;41.98;40.69;43.20;;
64077;Laerm;51039;49.696;10.808;2023-04-25T07:39:44;41.98;40.75;43.09;;
64077;Laerm;51039;49.696;10.808;2023-04-25T07:42:11;42.06;40.70;43.24;;
64077;Laerm;51039;49.696;10.808;2023-04-25T07:44:36;42.17;41.02;43.46;;
64077;Laerm;51039;49.696;10.808;2023-04-25T07:47:05;42.24;40.85;43.54;;
64077;Laerm;51039;49.696;10.808;2023-04-25T07:49:32;42.41;40.73;43.88;;
64077;Laerm;51039;49.696;10.808;2023-04-25T07:51:58;42.60;41.30;43.80;;
64077;Laerm;51039;49.696;10.808;2023-04-25T07:54:23;42.89;41.49;45.07;;
64077;Laerm;51039;49.696;10.808;2023-04-25T07:56:48;43.17;41.94;44.42;;
64077;Laerm;51039;49.696;10.808;2023-04-25T07:59:13;43.45;42.12;44.55;;
64077;Laerm;51039;49.696;10.808;2023-04-25T08:01:39;43.89;42.60;45.11;;
64077;Laerm;51039;49.696;10.808;2023-04-25T08:04:05;44.18;42.81;46.09;;
64077;Laerm;51039;49.696;10.808;2023-04-25T08:06:30;44.43;43.31;45.89;;
64077;Laerm;51039;49.696;10.808;2023-04-25T08:08:56;44.58;43.31;45.84;;
64077;Laerm;51039;49.696;10.808;2023-04-25T08:11:21;44.65;43.38;45.75;;
64077;Laerm;51039;49.696;10.808;2023-04-25T08:13:46;44.63;43.37;45.92;;
64077;Laerm;51039;49.696;10.808;2023-04-25T08:16:12;44.66;43.29;46.33;;
64077;Laerm;51039;49.696;10.808;2023-04-25T08:18:37;44.63;43.25;47.88;;
64077;Laerm;51039;49.696;10.808;2023-04-25T08:21:03;44.61;43.37;45.90;;
64077;Laerm;51039;49.696;10.808;2023-04-25T08:23:28;44.60;43.22;46.48;;
64077;Laerm;51039;49.696;10.808;2023-04-25T08:25:53;44.64;43.24;48.38;;
64077;Laerm;51039;49.696;10.808;2023-04-25T08:28:19;44.61;43.38;45.96;;
64077;Laerm;51039;49.696;10.808;2023-04-25T08:30:44;44.63;43.47;45.79;;
64077;Laerm;51039;49.696;10.808;2023-04-25T08:33:09;44.64;43.41;45.90;;
64077;Laerm;51039;49.696;10.808;2023-04-25T08:35:35;44.71;43.48;46.01;;
64077;Laerm;51039;49.696;10.808;2023-04-25T08:38:01;44.75;43.23;46.30;;
64077;Laerm;51039;49.696;10.808;2023-04-25T08:40:27;44.74;43.41;45.88;;
64077;Laerm;51039;49.696;10.808;2023-04-25T08:42:56;44.70;43.46;45.93;;
64077;Laerm;51039;49.696;10.808;2023-04-25T08:45:22;44.69;43.39;45.98;;
64077;Laerm;51039;49.696;10.808;2023-04-25T08:47:51;44.71;43.40;45.90;;
64077;Laerm;51039;49.696;10.808;2023-04-25T08:50:17;44.71;43.49;46.16;;
64077;Laerm;51039;49.696;10.808;2023-04-25T08:52:46;44.65;43.06;45.96;;
64077;Laerm;51039;49.696;10.808;2023-04-25T08:55:12;44.52;43.10;47.88;;
64077;Laerm;51039;49.696;10.808;2023-04-25T08:57:40;44.37;42.82;45.61;;
64077;Laerm;51039;49.696;10.808;2023-04-25T09:00:09;44.30;42.86;45.67;;
64077;Laerm;51039;49.696;10.808;2023-04-25T09:02:35;44.12;42.49;45.54;;
64077;Laerm;51039;49.696;10.808;2023-04-25T09:05:02;43.94;42.49;45.42;;
64077;Laerm;51039;49.696;10.808;2023-04-25T09:07:29;43.86;42.52;45.58;;
64077;Laerm;51039;49.696;10.808;2023-04-25T09:09:55;43.70;42.19;45.03;;
64077;Laerm;51039;49.696;10.808;2023-04-25T09:12:20;43.65;42.08;44.87;;
64077;Laerm;51039;49.696;10.808;2023-04-25T09:15:08;43.69;42.29;45.15;;
64077;Laerm;51039;49.696;10.808;2023-04-25T09:17:34;43.71;42.17;45.90;;
64077;Laerm;51039;49.696;10.808;2023-04-25T09:20:10;43.91;42.49;45.12;;
64077;Laerm;51039;49.696;10.808;2023-04-25T09:22:36;43.97;42.45;45.78;;
64077;Laerm;51039;49.696;10.808;2023-04-25T09:25:03;43.76;42.30;45.41;;
64077;Laerm;51039;49.696;10.808;2023-04-25T09:27:32;43.96;42.36;48.40;;
64077;Laerm;51039;49.696;10.808;2023-04-25T09:29:58;43.75;42.25;45.04;;
64077;Laerm;51039;49.696;10.808;2023-04-25T09:32:27;44.02;42.40;45.53;;
64077;Laerm;51039;49.696;10.808;2023-04-25T09:34:56;43.83;42.33;45.03;;
64077;Laerm;51039;49.696;10.808;2023-04-25T09:37:23;43.80;42.25;47.00;;
64077;Laerm;51039;49.696;10.808;2023-04-25T09:39:50;43.99;41.98;49.67;;
64077;Laerm;51039;49.696;10.808;2023-04-25T09:42:17;44.44;42.68;50.21;;
64077;Laerm;51039;49.696;10.808;2023-04-25T09:44:44;44.13;42.86;46.19;;
64077;Laerm;51039;49.696;10.808;2023-04-25T09:47:14;44.10;42.48;49.35;;
64077;Laerm;51039;49.696;10.808;2023-04-25T09:49:41;43.75;42.31;45.10;;
64077;Laerm;51039;49.696;10.808;2023-04-25T09:52:20;43.49;41.95;44.94;;
64077;Laerm;51039;49.696;10.808;2023-04-25T09:54:47;43.42;42.02;44.83;;
64077;Laerm;51039;49.696;10.808;2023-04-25T09:57:16;43.37;41.95;44.67;;
64077;Laerm;51039;49.696;10.808;2023-04-25T09:59:46;43.49;41.93;44.63;;
64077;Laerm;51039;49.696;10.808;2023-04-25T10:02:13;43.63;42.18;45.01;;
64077;Laerm;51039;49.696;10.808;2023-04-25T10:04:40;43.90;42.57;45.14;;
64077;Laerm;51039;49.696;10.808;2023-04-25T10:07:07;44.04;42.63;45.69;;
64077;Laerm;51039;49.696;10.808;2023-04-25T10:09:33;44.04;42.58;45.51;;
64077;Laerm;51039;49.696;10.808;2023-04-25T10:12:02;43.69;42.35;45.14;;
64077;Laerm;51039;49.696;10.808;2023-04-25T10:14:29;43.52;42.02;44.88;;
64077;Laerm;51039;49.696;10.808;2023-04-25T10:16:55;43.31;42.01;44.59;;
64077;Laerm;51039;49.696;10.808;2023-04-25T10:19:31;43.40;42.06;44.64;;
64077;Laerm;51039;49.696;10.808;2023-04-25T10:24:30;43.44;41.88;44.99;;
64077;Laerm;51039;49.696;10.808;2023-04-25T10:26:56;43.56;41.87;44.97;;
64077;Laerm;51039;49.696;10.808;2023-04-25T10:29:23;43.63;42.08;44.94;;
64077;Laerm;51039;49.696;10.808;2023-04-25T10:31:49;43.85;42.33;45.19;;
64077;Laerm;51039;49.696;10.808;2023-04-25T10:34:16;43.87;42.40;45.15;;
64077;Laerm;51039;49.696;10.808;2023-04-25T10:36:42;43.87;42.39;45.14;;
64077;Laerm;51039;49.696;10.808;2023-04-25T10:39:22;43.81;42.38;45.49;;
64077;Laerm;51039;49.696;10.808;2023-04-25T10:41:58;43.80;42.50;45.20;;
64077;Laerm;51039;49.696;10.808;2023-04-25T10:44:30;43.80;42.50;44.94;;
64077;Laerm;51039;49.696;10.808;2023-04-25T10:46:56;43.83;42.48;45.10;;
64077;Laerm;51039;49.696;10.808;2023-04-25T10:49:31;43.94;42.37;45.36;;
64077;Laerm;51039;49.696;10.808;2023-04-25T10:52:24;43.93;42.37;45.45;;
64077;Laerm;51039;49.696;10.808;2023-04-25T10:54:54;43.97;42.40;45.87;;
64077;Laerm;51039;49.696;10.808;2023-04-25T11:02:30;43.92;42.49;45.27;;
64077;Laerm;51039;49.696;10.808;2023-04-25T11:04:56;43.90;42.48;45.09;;
64077;Laerm;51039;49.696;10.808;2023-04-25T11:07:28;43.86;42.43;45.25;;
64077;Laerm;51039;49.696;10.808;2023-04-25T11:09:56;43.86;42.39;45.20;;
64077;Laerm;51039;49.696;10.808;2023-04-25T11:12:24;43.85;42.43;45.47;;
64077;Laerm;51039;49.696;10.808;2023-04-25T11:14:58;43.94;42.40;48.65;;
64077;Laerm;51039;49.696;10.808;2023-04-25T11:17:24;43.89;42.25;45.58;;
64077;Laerm;51039;49.696;10.808;2023-04-25T11:19:50;43.96;42.49;46.24;;
64077;Laerm;51039;49.696;10.808;2023-04-25T11:22:15;43.91;42.46;45.61;;
64077;Laerm;51039;49.696;10.808;2023-04-25T11:24:41;43.90;42.55;45.19;;
64077;Laerm;51039;49.696;10.808;2023-04-25T11:27:06;43.94;42.61;45.77;;
64077;Laerm;51039;49.696;10.808;2023-04-25T11:29:33;43.92;42.50;45.21;;
64077;Laerm;51039;49.696;10.808;2023-04-25T11:32:00;43.88;42.53;45.22;;
64077;Laerm;51039;49.696;10.808;2023-04-25T11:34:27;43.92;42.22;45.04;;
64077;Laerm;51039;49.696;10.808;2023-04-25T11:36:55;43.90;42.08;45.18;;
64077;Laerm;51039;49.696;10.808;2023-04-25T11:39:21;43.86;42.46;45.21;;
64077;Laerm;51039;49.696;10.808;2023-04-25T11:41:47;43.89;42.42;45.08;;
64077;Laerm;51039;49.696;10.808;2023-04-25T11:44:16;43.88;42.57;45.48;;
64077;Laerm;51039;49.696;10.808;2023-04-25T11:46:42;43.87;42.60;45.71;;
64077;Laerm;51039;49.696;10.808;2023-04-25T11:49:07;43.88;42.39;45.13;;
64077;Laerm;51039;49.696;10.808;2023-04-25T11:51:43;43.91;42.49;45.47;;
64077;Laerm;51039;49.696;10.808;2023-04-25T11:54:09;43.96;42.67;45.17;;
64077;Laerm;51039;49.696;10.808;2023-04-25T11:56:34;43.96;42.31;45.35;;
64077;Laerm;51039;49.696;10.808;2023-04-25T11:59:04;43.96;42.06;45.21;;
64077;Laerm;51039;49.696;10.808;2023-04-25T12:01:38;43.92;42.38;45.95;;
64077;Laerm;51039;49.696;10.808;2023-04-25T12:06:40;43.94;42.45;45.36;;
64077;Laerm;51039;49.696;10.808;2023-04-25T12:09:08;43.92;42.73;45.24;;
64077;Laerm;51039;49.696;10.808;2023-04-25T12:11:48;43.91;42.57;46.06;;
64077;Laerm;51039;49.696;10.808;2023-04-25T12:14:24;43.98;42.41;45.21;;
64077;Laerm;51039;49.696;10.808;2023-04-25T12:16:52;44.07;42.35;45.91;;
64077;Laerm;51039;49.696;10.808;2023-04-25T12:19:19;44.05;42.58;45.57;;
64077;Laerm;51039;49.696;10.808;2023-04-25T12:21:46;44.05;42.60;45.26;;
64077;Laerm;51039;49.696;10.808;2023-04-25T12:24:16;44.04;42.43;45.27;;
64077;Laerm;51039;49.696;10.808;2023-04-25T12:26:52;44.17;42.89;45.62;;
64077;Laerm;51039;49.696;10.808;2023-04-25T12:29:19;44.16;42.82;45.65;;
64077;Laerm;51039;49.696;10.808;2023-04-25T12:31:45;44.20;42.81;46.29;;
64077;Laerm;51039;49.696;10.808;2023-04-25T12:34:10;44.26;42.83;46.03;;
64077;Laerm;51039;49.696;10.808;2023-04-25T12:36:36;44.19;42.69;45.77;;
64077;Laerm;51039;49.696;10.808;2023-04-25T12:39:02;44.14;42.64;45.38;;
64077;Laerm;51039;49.696;10.808;2023-04-25T12:41:29;44.16;42.80;45.47;;
64077;Laerm;51039;49.696;10.808;2023-04-25T12:43:55;44.13;42.73;45.59;;
64077;Laerm;51039;49.696;10.808;2023-04-25T12:46:20;44.09;42.80;45.24;;
64077;Laerm;51039;49.696;10.808;2023-04-25T12:48:45;44.04;42.20;45.24;;
64077;Laerm;51039;49.696;10.808;2023-04-25T12:51:11;44.01;42.36;45.27;;
64077;Laerm;51039;49.696;10.808;2023-04-25T12:53:36;44.16;42.75;47.65;;
64077;Laerm;51039;49.696;10.808;2023-04-25T12:56:02;44.12;42.56;45.49;;
64077;Laerm;51039;49.696;10.808;2023-04-25T12:58:28;44.16;42.87;45.27;;
64077;Laerm;51039;49.696;10.808;2023-04-25T13:00:53;44.22;42.86;45.71;;
64077;Laerm;51039;49.696;10.808;2023-04-25T13:03:19;44.31;43.03;45.88;;
64077;Laerm;51039;49.696;10.808;2023-04-25T13:05:44;44.29;42.95;45.73;;
64077;Laerm;51039;49.696;10.808;2023-04-25T13:08:09;44.33;42.95;46.51;;
64077;Laerm;51039;49.696;10.808;2023-04-25T13:10:35;44.32;43.02;45.77;;
64077;Laerm;51039;49.696;10.808;2023-04-25T13:13:01;44.28;42.77;45.54;;
64077;Laerm;51039;49.696;10.808;2023-04-25T13:15:27;44.23;42.77;45.39;;
64077;Laerm;51039;49.696;10.808;2023-04-25T13:17:53;44.27;42.89;45.49;;
64077;Laerm;51039;49.696;10.808;2023-04-25T13:20:18;44.30;42.67;45.62;;
64077;Laerm;51039;49.696;10.808;2023-04-25T13:22:47;44.29;42.93;45.56;;
64077;Laerm;51039;49.696;10.808;2023-04-25T13:25:12;44.24;42.92;45.68;;
64077;Laerm;51039;49.696;10.808;2023-04-25T13:27:38;44.24;42.60;45.49;;
64077;Laerm;51039;49.696;10.808;2023-04-25T13:30:06;44.25;42.86;45.52;;
64077;Laerm;51039;49.696;10.808;2023-04-25T13:32:35;44.32;42.57;45.58;;
64077;Laerm;51039;49.696;10.808;2023-04-25T13:35:05;44.33;43.01;46.62;;
64077;Laerm;51039;49.696;10.808;2023-04-25T13:37:30;44.36;43.03;45.82;;